createdAt,value
2023-01-29T00:01:33.219Z,-0.66
2023-01-29T00:04:20.771Z,-0.69
2023-01-29T00:07:08.722Z,-0.70
2023-01-29T00:09:55.931Z,-0.70
2023-01-29T00:12:47.671Z,-0.66
2023-01-29T00:15:34.771Z,-0.70
2023-01-29T00:18:22.104Z,-0.83
2023-01-29T00:21:19.492Z,-0.80
2023-01-29T00:24:11.193Z,-0.70
2023-01-29T00:34:43.179Z,-1.00
2023-01-29T00:37:30.059Z,-0.96
2023-01-29T00:40:19.100Z,-0.95
2023-01-29T00:43:24.580Z,-0.98
2023-01-29T00:46:11.539Z,-1.08
2023-01-29T00:49:02.085Z,-1.25
2023-01-29T00:52:07.501Z,-1.18
2023-01-29T00:54:56.291Z,-1.34
2023-01-29T00:57:42.798Z,-1.21
2023-01-29T01:00:30.231Z,-1.25
2023-01-29T01:03:18.132Z,-1.33
2023-01-29T01:06:09.837Z,-1.26
2023-01-29T01:09:14.639Z,-1.30
2023-01-29T01:12:02.675Z,-1.37
2023-01-29T01:14:49.383Z,-1.39
2023-01-29T01:17:37.451Z,-1.46
2023-01-29T01:20:25.499Z,-1.41
2023-01-29T01:23:12.478Z,-1.46
2023-01-29T01:25:59.323Z,-1.54
2023-01-29T01:28:45.836Z,-1.56
2023-01-29T01:31:32.259Z,-1.63
2023-01-29T01:34:19.500Z,-1.67
2023-01-29T01:37:08.367Z,-1.55
2023-01-29T01:39:58.778Z,-1.59
2023-01-29T01:42:48.915Z,-1.65
2023-01-29T01:45:37.687Z,-1.68
2023-01-29T01:48:25.404Z,-1.73
2023-01-29T01:51:12.686Z,-1.70
2023-01-29T01:54:09.286Z,-1.93
2023-01-29T01:57:09.312Z,-1.67
2023-01-29T02:00:10.561Z,-1.66
2023-01-29T02:03:24.846Z,-1.76
2023-01-29T02:06:30.326Z,-1.89
2023-01-29T02:09:36.208Z,-1.98
2023-01-29T02:12:23.471Z,-1.81
2023-01-29T02:15:11.173Z,-1.85
2023-01-29T02:17:57.393Z,-1.86
2023-01-29T02:21:07.957Z,-1.91
2023-01-29T02:24:28.439Z,-1.88
2023-01-29T02:27:28.017Z,-1.89
2023-01-29T02:30:34.803Z,-1.87
2023-01-29T02:33:38.804Z,-1.96
2023-01-29T02:36:43.457Z,-2.10
2023-01-29T02:39:42.319Z,-1.70
2023-01-29T02:42:49.296Z,-1.67
2023-01-29T02:45:45.276Z,-1.68
2023-01-29T02:48:54.881Z,-1.51
2023-01-29T02:51:51.821Z,-1.50
2023-01-29T02:54:46.187Z,-1.49
2023-01-29T02:57:36.354Z,-1.53
2023-01-29T03:00:31.007Z,-1.51
2023-01-29T03:03:25.510Z,-1.45
2023-01-29T03:06:24.330Z,-1.44
2023-01-29T03:09:25.778Z,-1.37
2023-01-29T03:12:36.999Z,-1.33
2023-01-29T03:15:29.259Z,-1.31
2023-01-29T03:18:43.822Z,-1.26
2023-01-29T03:21:55.392Z,-1.20
2023-01-29T03:25:23.031Z,-1.30
2023-01-29T03:28:29.231Z,-1.24
2023-01-29T03:31:36.519Z,-1.20
2023-01-29T03:34:24.885Z,-1.29
2023-01-29T03:37:27.537Z,-1.25
2023-01-29T03:40:15.430Z,-1.39
2023-01-29T03:43:11.546Z,-1.22
2023-01-29T03:46:45.889Z,-1.23
2023-01-29T03:49:41.500Z,-1.30
2023-01-29T03:52:40.273Z,-1.16
2023-01-29T03:55:43.246Z,-1.19
2023-01-29T03:58:59.907Z,-1.17
2023-01-29T04:02:02.115Z,-1.15
2023-01-29T04:04:52.062Z,-1.20
2023-01-29T04:07:43.122Z,-1.11
2023-01-29T04:10:32.792Z,-1.19
2023-01-29T04:13:20.280Z,-1.28
2023-01-29T04:16:14.988Z,-1.07
2023-01-29T04:19:24.184Z,-1.04
2023-01-29T04:22:49.050Z,-1.06
2023-01-29T04:25:45.472Z,-1.15
2023-01-29T04:29:10.711Z,-1.28
2023-01-29T04:32:05.514Z,-1.09
2023-01-29T04:34:56.199Z,-1.06
2023-01-29T04:37:49.059Z,-1.05
2023-01-29T04:40:43.307Z,-1.00
2023-01-29T04:43:46.321Z,-1.07
2023-01-29T04:46:38.793Z,-1.01
2023-01-29T04:49:40.901Z,-1.01
2023-01-29T04:52:30.034Z,-1.01
2023-01-29T04:55:26.108Z,-0.98
2023-01-29T04:58:35.345Z,-1.14
2023-01-29T05:01:25.871Z,-1.02
2023-01-29T05:04:14.878Z,-1.03
2023-01-29T05:07:04.413Z,-1.02
2023-01-29T05:09:51.537Z,-1.08
2023-01-29T05:12:38.949Z,-1.06
2023-01-29T05:15:35.808Z,-1.22
2023-01-29T05:18:22.484Z,-1.04
2023-01-29T05:21:09.714Z,-1.10
2023-01-29T05:24:23.398Z,-1.21
2023-01-29T05:27:44.130Z,-1.15
2023-01-29T05:30:32.332Z,-1.29
2023-01-29T05:33:24.426Z,-1.11
2023-01-29T05:36:11.002Z,-1.32
2023-01-29T05:38:57.484Z,-1.13
2023-01-29T05:41:44.297Z,-1.35
2023-01-29T05:44:30.931Z,-1.43
2023-01-29T05:47:20.769Z,-1.22
2023-01-29T05:50:09.802Z,-1.42
2023-01-29T05:53:00.746Z,-1.27
2023-01-29T05:55:48.124Z,-1.36
2023-01-29T05:58:34.982Z,-1.37
2023-01-29T06:01:23.647Z,-1.37
2023-01-29T06:04:10.306Z,-1.19
2023-01-29T06:06:59.697Z,-1.19
2023-01-29T06:09:46.497Z,-1.13
2023-01-29T06:12:33.025Z,-1.13
2023-01-29T06:15:20.044Z,-1.25
2023-01-29T06:18:06.303Z,-1.18
2023-01-29T06:20:53.119Z,-1.25
2023-01-29T06:23:40.097Z,-1.35
2023-01-29T06:26:27.099Z,-1.08
2023-01-29T06:29:13.733Z,-1.08
2023-01-29T06:32:00.360Z,-1.08
2023-01-29T06:34:49.461Z,-1.14
2023-01-29T06:37:39.017Z,-1.03
2023-01-29T06:40:27.231Z,-1.00
2023-01-29T06:43:14.054Z,-1.19
2023-01-29T06:46:00.729Z,-1.07
2023-01-29T06:48:47.540Z,-1.08
2023-01-29T06:51:38.895Z,-1.24
2023-01-29T06:54:29.484Z,-0.99
2023-01-29T06:57:16.043Z,-0.94
2023-01-29T07:00:03.120Z,-1.14
2023-01-29T07:02:50.491Z,-0.96
2023-01-29T07:05:37.981Z,-0.92
2023-01-29T07:08:24.183Z,-0.90
2023-01-29T07:11:11.025Z,-1.03
2023-01-29T07:14:00.609Z,-0.99
2023-01-29T07:16:50.685Z,-0.89
2023-01-29T07:19:37.033Z,-0.86
2023-01-29T07:22:23.546Z,-0.82
2023-01-29T07:25:10.296Z,-0.89
2023-01-29T07:27:57.767Z,-0.79
2023-01-29T07:30:44.726Z,-0.96
2023-01-29T07:33:32.018Z,-0.77
2023-01-29T07:36:18.131Z,-0.76
2023-01-29T07:39:05.051Z,-0.77
2023-01-29T07:41:51.521Z,-0.84
2023-01-29T07:44:38.151Z,-0.72
2023-01-29T07:47:24.214Z,-0.83
2023-01-29T07:50:11.273Z,-1.13
2023-01-29T07:52:58.046Z,-0.80
2023-01-29T07:55:45.490Z,-0.78
2023-01-29T07:58:33.931Z,-0.72
2023-01-29T08:01:22.129Z,-0.77
2023-01-29T08:04:08.349Z,-0.71
2023-01-29T08:06:55.550Z,-0.81
2023-01-29T08:09:42.160Z,-0.63
2023-01-29T08:12:29.058Z,-0.71
2023-01-29T08:15:15.541Z,-0.54
2023-01-29T08:22:49.732Z,-0.52
2023-01-29T08:25:39.225Z,-0.48
2023-01-29T08:28:27.545Z,-0.80
2023-01-29T08:31:18.331Z,-0.47
2023-01-29T08:34:04.811Z,-0.39
2023-01-29T08:36:51.717Z,-0.43
2023-01-29T08:39:38.398Z,-0.26
2023-01-29T08:42:25.134Z,-0.24
2023-01-29T08:45:13.971Z,-0.21
2023-01-29T08:48:52.908Z,-0.22
2023-01-29T08:52:34.203Z,-0.20
2023-01-29T08:55:21.823Z,-0.21
2023-01-29T08:58:12.725Z,-0.26
2023-01-29T09:01:11.118Z,-0.16
2023-01-29T09:03:57.845Z,-0.37
2023-01-29T09:06:44.251Z,-0.35
2023-01-29T09:09:31.301Z,-0.24
2023-01-29T09:12:21.085Z,-0.19
2023-01-29T09:15:08.546Z,-0.13
2023-01-29T09:17:55.202Z,-0.33
2023-01-29T09:20:48.035Z,-0.13
2023-01-29T09:23:36.307Z,-0.14
2023-01-29T09:26:23.321Z,-0.17
2023-01-29T09:29:12.874Z,-0.12
2023-01-29T09:31:59.800Z,-0.16
2023-01-29T09:34:46.015Z,-0.16
2023-01-29T09:37:32.760Z,-0.10
2023-01-29T09:40:58.381Z,-0.12
2023-01-29T09:43:46.744Z,-0.08
2023-01-29T09:46:41.405Z,-0.06
2023-01-29T09:49:35.930Z,-0.01
2023-01-29T09:52:28.267Z,-0.16
2023-01-29T09:55:28.155Z,0.08
2023-01-29T09:58:20.004Z,0.05
2023-01-29T10:01:45.801Z,0.07
2023-01-29T10:05:09.910Z,0.09
2023-01-29T10:08:17.038Z,0.07
2023-01-29T10:11:26.803Z,0.07
2023-01-29T10:14:38.038Z,0.02
2023-01-29T10:17:35.351Z,-0.10
2023-01-29T10:20:43.169Z,-0.04
2023-01-29T10:23:39.065Z,0.01
2023-01-29T10:26:29.711Z,0.05
2023-01-29T10:29:19.849Z,0.10
2023-01-29T10:32:06.968Z,-0.24
2023-01-29T10:35:00.173Z,0.16
2023-01-29T10:37:47.088Z,0.14
2023-01-29T10:41:04.364Z,-0.08
2023-01-29T10:44:29.220Z,0.22
2023-01-29T10:47:40.631Z,0.22
2023-01-29T10:50:39.749Z,0.08
2023-01-29T10:53:43.155Z,0.27
2023-01-29T10:56:47.908Z,0.30
2023-01-29T10:59:43.649Z,-0.02
2023-01-29T11:02:30.834Z,0.20
2023-01-29T11:05:27.217Z,0.16
2023-01-29T11:08:17.707Z,-0.04
2023-01-29T11:11:11.927Z,0.26
2023-01-29T11:14:07.300Z,0.31
2023-01-29T11:17:02.222Z,0.19
2023-01-29T11:19:53.413Z,0.32
2023-01-29T11:22:54.408Z,0.24
2023-01-29T11:25:52.736Z,-0.04
2023-01-29T11:28:44.758Z,0.28
2023-01-29T11:31:38.763Z,0.35
2023-01-29T11:34:30.542Z,0.32
2023-01-29T11:37:19.799Z,0.34
2023-01-29T11:40:45.019Z,0.35
2023-01-29T11:43:32.810Z,0.19
2023-01-29T11:46:26.568Z,0.34
2023-01-29T11:49:23.819Z,0.32
2023-01-29T11:52:12.230Z,0.29
2023-01-29T11:55:02.411Z,0.03
2023-01-29T11:58:38.153Z,0.44
2023-01-29T12:01:35.279Z,0.41
2023-01-29T12:04:24.312Z,0.36
2023-01-29T12:11:34.999Z,0.41
2023-01-29T12:14:44.112Z,0.30
2023-01-29T12:17:33.858Z,0.20
2023-01-29T12:20:26.818Z,0.35
2023-01-29T12:23:42.291Z,0.43
2023-01-29T12:26:55.223Z,0.41
2023-01-29T12:30:08.076Z,0.47
2023-01-29T12:33:15.675Z,0.44
2023-01-29T12:36:15.054Z,0.46
2023-01-29T12:39:01.574Z,0.46
2023-01-29T12:42:08.754Z,0.47
2023-01-29T12:45:03.019Z,0.56
2023-01-29T12:47:59.124Z,0.33
2023-01-29T12:50:46.409Z,0.49
2023-01-29T12:53:37.762Z,0.46
2023-01-29T12:56:32.970Z,0.50
2023-01-29T12:59:33.299Z,0.44
2023-01-29T13:02:46.350Z,0.44
2023-01-29T13:05:39.162Z,0.26
2023-01-29T13:08:29.762Z,0.19
2023-01-29T13:11:22.420Z,0.45
2023-01-29T13:14:23.356Z,0.40
2023-01-29T13:17:14.980Z,0.43
2023-01-29T13:20:19.905Z,0.45
2023-01-29T13:23:16.233Z,0.23
2023-01-29T13:26:03.051Z,0.49
2023-01-29T13:28:50.140Z,0.26
2023-01-29T13:31:41.397Z,0.49
2023-01-29T13:34:31.847Z,0.50
2023-01-29T13:37:28.289Z,0.48
2023-01-29T13:40:25.211Z,0.53
2023-01-29T13:43:20.045Z,0.25
2023-01-29T13:46:15.885Z,0.34
2023-01-29T13:49:05.124Z,0.41
2023-01-29T13:51:52.245Z,0.18
2023-01-29T13:54:41.919Z,0.37
2023-01-29T13:57:37.084Z,0.41
2023-01-29T14:00:31.055Z,0.14
2023-01-29T14:03:18.219Z,0.47
2023-01-29T14:06:05.596Z,0.45
2023-01-29T14:08:52.452Z,0.47
2023-01-29T14:11:48.425Z,0.44
2023-01-29T14:14:48.673Z,0.45
2023-01-29T14:17:40.588Z,0.37
2023-01-29T14:20:46.062Z,0.35
2023-01-29T14:23:41.707Z,0.33
2023-01-29T14:26:34.134Z,0.35
2023-01-29T14:29:34.365Z,0.30
2023-01-29T14:32:26.362Z,0.31
2023-01-29T14:35:23.903Z,0.24
2023-01-29T14:38:14.498Z,0.37
2023-01-29T14:41:20.944Z,0.16
2023-01-29T14:44:45.392Z,0.34
2023-01-29T14:47:33.765Z,0.31
2023-01-29T14:50:30.085Z,0.33
2023-01-29T14:53:43.405Z,0.34
2023-01-29T14:56:59.686Z,0.37
2023-01-29T15:00:11.843Z,0.27
2023-01-29T15:03:06.408Z,0.28
2023-01-29T15:06:07.447Z,0.23
2023-01-29T15:09:36.321Z,0.31
2023-01-29T15:12:40.407Z,0.21
2023-01-29T15:15:51.856Z,0.29
2023-01-29T15:18:44.354Z,0.22
2023-01-29T15:21:47.257Z,0.35
2023-01-29T15:24:39.206Z,0.29
2023-01-29T15:27:51.780Z,0.32
2023-01-29T15:30:39.185Z,0.32
2023-01-29T15:38:43.028Z,0.32
2023-01-29T15:41:29.573Z,0.19
2023-01-29T15:44:23.905Z,0.25
2023-01-29T15:47:10.797Z,0.27
2023-01-29T15:49:58.081Z,0.28
2023-01-29T15:52:49.336Z,0.27
2023-01-29T16:02:42.171Z,0.27
2023-01-29T16:05:30.481Z,0.27
2023-01-29T16:08:31.020Z,0.21
2023-01-29T16:11:27.025Z,0.24
2023-01-29T16:14:23.188Z,0.22
2023-01-29T16:17:35.238Z,0.28
2023-01-29T16:21:09.103Z,0.31
2023-01-29T16:24:07.074Z,0.32
2023-01-29T16:27:02.798Z,0.31
2023-01-29T16:29:51.876Z,0.32
2023-01-29T16:32:38.384Z,0.25
2023-01-29T16:35:25.211Z,0.23
2023-01-29T16:38:33.185Z,0.23
2023-01-29T16:41:23.766Z,0.24
2023-01-29T16:44:17.250Z,0.28
2023-01-29T16:47:40.096Z,0.11
2023-01-29T16:50:40.712Z,0.27
2023-01-29T16:54:00.225Z,0.31
2023-01-29T16:57:04.335Z,0.24
2023-01-29T16:59:58.566Z,0.27
2023-01-29T17:02:48.086Z,0.27
2023-01-29T17:05:38.580Z,0.29
2023-01-29T17:08:33.360Z,0.31
2023-01-29T17:11:31.815Z,0.14
2023-01-29T17:14:20.991Z,0.26
2023-01-29T17:17:15.484Z,0.32
2023-01-29T17:20:19.218Z,0.32
2023-01-29T17:23:05.938Z,0.25
2023-01-29T17:25:52.380Z,0.34
2023-01-29T17:28:40.111Z,0.38
2023-01-29T17:31:26.598Z,0.39
2023-01-29T17:34:15.611Z,0.20
2023-01-29T17:37:01.860Z,0.23
2023-01-29T17:39:50.693Z,0.35
2023-01-29T17:42:37.071Z,0.35
2023-01-29T17:45:23.749Z,0.25
2023-01-29T17:48:23.214Z,0.41
2023-01-29T17:51:14.763Z,0.17
2023-01-29T17:54:01.355Z,0.35
2023-01-29T17:56:48.538Z,0.31
2023-01-29T17:59:35.171Z,0.29
2023-01-29T18:02:29.553Z,0.28
2023-01-29T18:05:17.451Z,0.12
2023-01-29T18:08:05.041Z,0.23
2023-01-29T18:10:51.957Z,0.25
2023-01-29T18:13:42.096Z,0.23
2023-01-29T18:16:29.409Z,0.20
2023-01-29T18:19:22.688Z,-0.03
2023-01-29T18:22:09.331Z,0.19
2023-01-29T18:24:56.277Z,0.27
2023-01-29T18:27:42.997Z,0.21
2023-01-29T18:30:30.728Z,0.20
2023-01-29T18:33:18.162Z,0.31
2023-01-29T18:41:27.281Z,0.28
2023-01-29T18:44:13.690Z,0.26
2023-01-29T18:47:00.917Z,0.26
2023-01-29T18:49:47.184Z,0.07
2023-01-29T18:52:34.537Z,0.25
2023-01-29T18:55:22.127Z,0.23
2023-01-29T18:58:27.841Z,0.12
2023-01-29T19:01:17.263Z,0.07
2023-01-29T19:04:03.790Z,0.20
2023-01-29T19:06:50.205Z,0.23
2023-01-29T19:09:38.016Z,-0.13
2023-01-29T19:12:46.692Z,-0.13
2023-01-29T19:15:34.924Z,0.20
2023-01-29T19:18:21.783Z,-0.04
2023-01-29T19:21:11.576Z,0.05
2023-01-29T19:23:58.276Z,0.20
2023-01-29T19:26:47.174Z,0.08
2023-01-29T19:29:34.504Z,0.12
2023-01-29T19:32:20.868Z,0.18
2023-01-29T19:35:07.567Z,0.12
2023-01-29T19:37:54.612Z,-0.01
2023-01-29T19:48:14.680Z,0.22
2023-01-29T19:51:40.204Z,0.18
2023-01-29T19:54:27.933Z,0.04
2023-01-29T19:57:15.180Z,0.18
2023-01-29T20:00:02.302Z,0.17
2023-01-29T20:02:51.005Z,0.19
2023-01-29T20:05:37.737Z,0.17
2023-01-29T20:08:24.849Z,0.12
2023-01-29T20:11:13.627Z,-0.01
2023-01-29T20:14:00.040Z,0.09
2023-01-29T20:16:49.538Z,0.05
2023-01-29T20:19:36.172Z,0.10
2023-01-29T20:22:22.560Z,0.13
2023-01-29T20:25:09.699Z,-0.07
2023-01-29T20:27:56.039Z,0.11
2023-01-29T20:30:46.182Z,-0.08
2023-01-29T20:33:33.717Z,0.10
2023-01-29T20:36:20.753Z,0.11
2023-01-29T20:39:07.043Z,-0.02
2023-01-29T20:41:53.575Z,0.07
2023-01-29T20:44:40.389Z,0.06
2023-01-29T20:47:27.274Z,0.14
2023-01-29T20:50:15.194Z,0.14
2023-01-29T20:53:20.413Z,0.14
2023-01-29T21:01:23.717Z,0.15
2023-01-29T21:04:10.166Z,0.14
2023-01-29T21:06:56.625Z,0.17
2023-01-29T21:09:43.209Z,0.17
2023-01-29T21:12:30.347Z,0.17
2023-01-29T21:15:16.867Z,0.18
2023-01-29T21:18:04.656Z,0.16
2023-01-29T21:20:50.789Z,0.17
2023-01-29T21:23:37.569Z,0.11
2023-01-29T21:26:23.820Z,0.16
2023-01-29T21:29:11.645Z,0.21
2023-01-29T21:32:00.864Z,0.20
2023-01-29T21:34:47.612Z,0.18
2023-01-29T21:37:37.065Z,-0.03
2023-01-29T21:40:27.330Z,0.04
2023-01-29T21:43:15.570Z,0.16
2023-01-29T21:46:12.166Z,0.15
2023-01-29T21:48:58.870Z,0.13
2023-01-29T21:51:45.645Z,-0.30
2023-01-29T21:54:35.568Z,-0.19
2023-01-29T21:57:26.739Z,0.06
2023-01-29T22:00:14.148Z,0.06
2023-01-29T22:03:01.251Z,0.07
2023-01-29T22:05:47.523Z,0.08
2023-01-29T22:08:34.810Z,-0.29
2023-01-29T22:11:23.337Z,0.12
2023-01-29T22:14:10.543Z,0.15
2023-01-29T22:16:59.076Z,0.10
2023-01-29T22:19:48.831Z,0.10
2023-01-29T22:22:35.016Z,-0.13
2023-01-29T22:25:21.516Z,0.07
2023-01-29T22:28:07.793Z,0.05
2023-01-29T22:31:01.231Z,0.11
2023-01-29T22:33:47.535Z,-0.10
2023-01-29T22:36:34.640Z,0.13
2023-01-29T22:39:21.255Z,-0.15
2023-01-29T22:42:08.228Z,0.08
2023-01-29T22:44:54.443Z,0.10
2023-01-29T22:47:41.457Z,-0.08
2023-01-29T22:50:27.778Z,0.08
2023-01-29T22:53:14.744Z,-0.03
2023-01-29T22:56:00.802Z,0.02
2023-01-29T22:59:11.048Z,0.02
2023-01-29T23:01:57.539Z,0.02
2023-01-29T23:04:44.147Z,0.09
2023-01-29T23:07:30.533Z,0.06
2023-01-29T23:10:22.201Z,0.10
2023-01-29T23:13:16.001Z,0.14
2023-01-29T23:16:02.987Z,0.13
2023-01-29T23:18:51.520Z,0.10
2023-01-29T23:21:38.137Z,0.09
2023-01-29T23:24:24.329Z,0.06
2023-01-29T23:27:16.851Z,0.08
2023-01-29T23:30:06.996Z,0.05
2023-01-29T23:37:51.652Z,0.10
2023-01-29T23:40:59.919Z,0.09
2023-01-29T23:43:46.303Z,-0.11
2023-01-29T23:46:32.982Z,0.11
2023-01-29T23:49:19.969Z,0.11
2023-01-29T23:52:06.427Z,0.16
2023-01-29T23:54:53.552Z,0.14
2023-01-29T23:57:39.793Z,0.03
